createdAt,value
2022-10-23T00:02:16.663Z,101427.25
2022-10-23T00:04:44.655Z,101432.47
2022-10-23T00:07:13.898Z,101433.19
2022-10-23T00:09:41.708Z,101434.75
2022-10-23T00:12:09.553Z,101439.28
2022-10-23T00:14:37.604Z,101434.13
2022-10-23T00:17:05.423Z,101434.84
2022-10-23T00:19:33.298Z,101445.06
2022-10-23T00:22:01.090Z,101447.56
2022-10-23T00:24:30.252Z,101447.47
2022-10-23T00:26:58.142Z,101450.31
2022-10-23T00:29:28.075Z,101457.53
2022-10-23T00:31:55.929Z,101458.28
2022-10-23T00:34:23.748Z,101466.94
2022-10-23T00:36:51.577Z,101465.44
2022-10-23T00:39:19.403Z,101456.56
2022-10-23T00:41:48.587Z,101457.00
2022-10-23T00:44:49.543Z,101450.19
2022-10-23T00:47:18.354Z,101449.88
2022-10-23T00:49:46.205Z,101446.63
2022-10-23T00:52:15.162Z,101459.56
2022-10-23T00:54:45.388Z,101458.31
2022-10-23T00:57:16.717Z,101449.63
2022-10-23T00:59:44.646Z,101460.75
2022-10-23T01:02:12.695Z,101455.22
2022-10-23T01:04:40.669Z,101461.44
2022-10-23T01:07:15.608Z,101451.56
2022-10-23T01:09:48.204Z,101450.56
2022-10-23T01:12:25.291Z,101452.09
2022-10-23T01:15:02.167Z,101453.81
2022-10-23T01:17:39.696Z,101452.22
2022-10-23T01:20:30.212Z,101452.94
2022-10-23T01:23:18.386Z,101451.06
2022-10-23T01:26:03.499Z,101454.63
2022-10-23T01:28:39.856Z,101456.47
2022-10-23T01:31:15.343Z,101455.88
2022-10-23T01:33:48.493Z,101469.34
2022-10-23T01:36:28.675Z,101465.91
2022-10-23T01:41:43.400Z,101466.78
2022-10-23T01:44:17.469Z,101460.41
2022-10-23T01:46:46.762Z,101461.41
2022-10-23T01:49:16.015Z,101466.78
2022-10-23T01:51:48.546Z,101463.69
2022-10-23T01:54:19.358Z,101461.13
2022-10-23T01:56:51.269Z,101456.00
2022-10-23T01:59:29.641Z,101459.91
2022-10-23T02:02:00.526Z,101454.84
2022-10-23T02:04:34.112Z,101457.53
2022-10-23T02:07:02.414Z,101459.06
2022-10-23T02:09:30.300Z,101459.53
2022-10-23T02:12:03.601Z,101459.38
2022-10-23T02:14:41.893Z,101450.88
2022-10-23T02:17:16.528Z,101451.78
2022-10-23T02:19:50.458Z,101456.13
2022-10-23T02:22:24.753Z,101454.88
2022-10-23T02:24:57.221Z,101449.50
2022-10-23T02:27:31.463Z,101448.66
2022-10-23T02:30:06.230Z,101455.16
2022-10-23T02:32:37.072Z,101454.19
2022-10-23T02:35:05.599Z,101446.38
2022-10-23T02:37:34.062Z,101445.94
2022-10-23T02:40:04.984Z,101448.91
2022-10-23T02:42:48.250Z,101452.53
2022-10-23T02:45:25.205Z,101446.56
2022-10-23T02:47:59.372Z,101449.13
2022-10-23T02:50:34.116Z,101455.19
2022-10-23T02:53:11.150Z,101450.91
2022-10-23T02:55:49.044Z,101448.88
2022-10-23T02:58:25.262Z,101459.94
2022-10-23T03:01:00.969Z,101454.25
2022-10-23T03:03:33.664Z,101453.38
2022-10-23T03:06:01.978Z,101453.78
2022-10-23T03:08:29.836Z,101449.75
2022-10-23T03:10:57.829Z,101450.91
2022-10-23T03:13:28.389Z,101451.47
2022-10-23T03:15:57.592Z,101456.56
2022-10-23T03:18:27.919Z,101446.50
2022-10-23T03:20:59.727Z,101448.59
2022-10-23T03:23:27.627Z,101448.59
2022-10-23T03:25:56.461Z,101442.03
2022-10-23T03:28:36.204Z,101452.34
2022-10-23T03:31:05.713Z,101451.63
2022-10-23T03:33:34.348Z,101459.25
2022-10-23T03:36:11.391Z,101452.47
2022-10-23T03:38:39.351Z,101461.84
2022-10-23T03:41:07.452Z,101454.88
2022-10-23T03:43:35.254Z,101457.31
2022-10-23T03:46:09.130Z,101460.84
2022-10-23T03:48:38.151Z,101459.41
2022-10-23T03:51:06.890Z,101457.06
2022-10-23T03:53:34.854Z,101458.59
2022-10-23T03:56:04.816Z,101465.09
2022-10-23T03:58:34.754Z,101465.63
2022-10-23T04:01:02.752Z,101463.38
2022-10-23T04:03:31.964Z,101461.53
2022-10-23T04:05:59.808Z,101461.94
2022-10-23T04:08:27.653Z,101466.50
2022-10-23T04:10:56.336Z,101461.09
2022-10-23T04:13:46.431Z,101467.13
2022-10-23T04:16:14.414Z,101468.72
2022-10-23T04:18:44.045Z,101458.84
2022-10-23T04:21:12.306Z,101457.59
2022-10-23T04:23:40.946Z,101462.59
2022-10-23T04:26:17.886Z,101460.47
2022-10-23T04:28:45.894Z,101457.25
2022-10-23T04:31:14.003Z,101449.91
2022-10-23T04:33:45.326Z,101458.97
2022-10-23T04:36:27.155Z,101454.13
2022-10-23T04:38:55.021Z,101446.28
2022-10-23T04:41:22.886Z,101449.84
2022-10-23T04:43:50.787Z,101449.03
2022-10-23T04:46:18.976Z,101459.31
2022-10-23T04:48:51.059Z,101460.03
2022-10-23T04:51:29.546Z,101456.38
2022-10-23T04:54:13.525Z,101455.63
2022-10-23T04:56:48.468Z,101464.44
2022-10-23T04:59:22.045Z,101460.91
2022-10-23T05:01:50.288Z,101465.88
2022-10-23T05:04:20.606Z,101455.72
2022-10-23T05:07:07.171Z,101453.38
2022-10-23T05:09:50.721Z,101454.44
2022-10-23T05:12:33.014Z,101456.75
2022-10-23T05:15:01.270Z,101456.88
2022-10-23T05:17:34.093Z,101455.06
2022-10-23T05:20:08.704Z,101460.81
2022-10-23T05:22:39.970Z,101463.03
2022-10-23T05:25:11.501Z,101459.59
2022-10-23T05:27:41.869Z,101462.91
2022-10-23T05:30:13.808Z,101458.22
2022-10-23T05:32:42.997Z,101459.69
2022-10-23T05:35:17.185Z,101459.72
2022-10-23T05:37:50.904Z,101467.09
2022-10-23T05:40:22.319Z,101461.53
2022-10-23T05:42:54.718Z,101465.38
2022-10-23T05:45:32.529Z,101465.72
2022-10-23T05:48:33.413Z,101464.84
2022-10-23T05:51:23.262Z,101472.56
2022-10-23T05:54:01.695Z,101481.00
2022-10-23T05:56:34.362Z,101473.75
2022-10-23T05:59:23.271Z,101474.50
2022-10-23T06:02:20.745Z,101476.56
2022-10-23T06:04:56.971Z,101473.31
2022-10-23T06:07:35.005Z,101464.72
2022-10-23T06:10:06.967Z,101458.22
2022-10-23T06:12:39.578Z,101451.47
2022-10-23T06:15:08.730Z,101460.41
2022-10-23T06:18:02.983Z,101465.78
2022-10-23T06:20:36.631Z,101462.00
2022-10-23T06:23:12.248Z,101458.94
2022-10-23T06:26:03.466Z,101459.31
2022-10-23T06:28:49.276Z,101461.03
2022-10-23T06:31:19.096Z,101456.72
2022-10-23T06:33:47.140Z,101452.09
2022-10-23T06:36:15.556Z,101453.44
2022-10-23T06:38:45.870Z,101461.50
2022-10-23T06:41:16.453Z,101457.34
2022-10-23T06:43:49.114Z,101464.22
2022-10-23T06:46:49.304Z,101455.00
2022-10-23T06:49:43.578Z,101464.44
2022-10-23T06:52:23.154Z,101469.94
2022-10-23T06:55:00.749Z,101468.56
2022-10-23T06:57:35.249Z,101478.47
2022-10-23T07:00:03.216Z,101482.19
2022-10-23T07:02:35.890Z,101485.25
2022-10-23T07:05:06.016Z,101479.25
2022-10-23T07:07:35.583Z,101479.44
2022-10-23T07:10:07.306Z,101474.06
2022-10-23T07:12:42.288Z,101473.78
2022-10-23T07:15:31.059Z,101470.25
2022-10-23T07:17:59.542Z,101476.34
2022-10-23T07:20:34.535Z,101483.06
2022-10-23T07:23:02.416Z,101474.63
2022-10-23T07:25:38.083Z,101473.28
2022-10-23T07:28:07.289Z,101472.97
2022-10-23T07:30:35.183Z,101479.09
2022-10-23T07:33:04.299Z,101477.09
2022-10-23T07:35:58.005Z,101479.34
2022-10-23T07:38:29.031Z,101472.97
2022-10-23T07:41:00.148Z,101476.78
2022-10-23T07:43:28.650Z,101477.59
2022-10-23T07:45:56.830Z,101472.06
2022-10-23T07:48:31.538Z,101470.34
2022-10-23T07:51:01.840Z,101479.47
2022-10-23T07:53:30.917Z,101480.13
2022-10-23T07:56:14.140Z,101466.91
2022-10-23T07:59:02.188Z,101466.06
2022-10-23T08:01:33.554Z,101461.72
2022-10-23T08:04:02.031Z,101460.56
2022-10-23T08:06:31.066Z,101462.34
2022-10-23T08:09:02.323Z,101458.81
2022-10-23T08:11:36.242Z,101462.94
2022-10-23T08:14:08.204Z,101452.59
2022-10-23T08:16:39.328Z,101454.56
2022-10-23T08:19:08.790Z,101461.09
2022-10-23T08:21:40.123Z,101457.81
2022-10-23T08:24:13.699Z,101451.06
2022-10-23T08:26:47.521Z,101448.13
2022-10-23T08:29:15.395Z,101454.53
2022-10-23T08:31:43.733Z,101460.78
2022-10-23T08:34:26.055Z,101458.25
2022-10-23T08:36:55.190Z,101452.72
2022-10-23T08:39:24.839Z,101460.53
2022-10-23T08:42:20.401Z,101453.16
2022-10-23T08:44:59.082Z,101453.88
2022-10-23T08:47:34.848Z,101447.63
2022-10-23T08:50:26.976Z,101443.25
2022-10-23T08:53:00.249Z,101442.50
2022-10-23T08:55:34.211Z,101444.66
2022-10-23T08:58:08.563Z,101444.81
2022-10-23T09:00:36.422Z,101438.81
2022-10-23T09:03:06.426Z,101440.81
2022-10-23T09:05:40.775Z,101437.81
2022-10-23T09:08:29.906Z,101442.78
2022-10-23T09:11:05.452Z,101445.34
2022-10-23T09:14:12.524Z,101437.06
2022-10-23T09:16:56.323Z,101434.97
2022-10-23T09:19:27.249Z,101431.81
2022-10-23T09:21:56.505Z,101422.88
2022-10-23T09:24:26.156Z,101414.06
2022-10-23T09:26:55.236Z,101408.41
2022-10-23T09:29:26.792Z,101415.78
2022-10-23T09:31:56.794Z,101410.00
2022-10-23T09:34:26.983Z,101406.91
2022-10-23T09:36:56.839Z,101410.81
2022-10-23T09:39:28.480Z,101420.72
2022-10-23T09:41:57.097Z,101417.31
2022-10-23T09:44:27.940Z,101417.31
2022-10-23T09:47:01.223Z,101419.59
2022-10-23T09:49:31.305Z,101421.06
2022-10-23T09:52:04.406Z,101408.47
2022-10-23T09:54:34.392Z,101394.97
2022-10-23T09:57:13.653Z,101391.06
2022-10-23T09:59:43.565Z,101403.03
2022-10-23T10:02:23.957Z,101400.94
2022-10-23T10:05:24.387Z,101396.50
2022-10-23T10:07:59.306Z,101392.94
2022-10-23T10:10:35.747Z,101391.31
2022-10-23T10:13:15.131Z,101387.91
2022-10-23T10:15:51.611Z,101387.78
2022-10-23T10:18:27.553Z,101381.47
2022-10-23T10:21:09.347Z,101383.69
2022-10-23T10:23:47.110Z,101376.88
2022-10-23T10:26:26.902Z,101368.53
2022-10-23T10:29:06.257Z,101363.22
2022-10-23T10:31:50.713Z,101367.03
2022-10-23T10:34:29.947Z,101372.66
2022-10-23T10:37:06.750Z,101366.00
2022-10-23T10:39:48.732Z,101362.22
2022-10-23T10:42:33.549Z,101368.72
2022-10-23T10:45:18.404Z,101360.03
2022-10-23T10:47:57.249Z,101358.50
2022-10-23T10:50:37.703Z,101351.06
2022-10-23T10:53:24.474Z,101356.94
2022-10-23T10:55:55.500Z,101353.81
2022-10-23T10:58:31.334Z,101346.41
2022-10-23T11:01:02.227Z,101344.88
2022-10-23T11:03:40.609Z,101337.38
2022-10-23T11:06:16.164Z,101335.06
2022-10-23T11:08:57.562Z,101332.09
2022-10-23T11:11:34.051Z,101330.19
2022-10-23T11:14:02.995Z,101331.09
2022-10-23T11:16:35.953Z,101322.19
2022-10-23T11:19:14.053Z,101317.16
2022-10-23T11:21:45.319Z,101306.72
2022-10-23T11:24:55.797Z,101301.72
2022-10-23T11:31:24.654Z,101292.72
2022-10-23T11:34:34.817Z,101295.16
2022-10-23T11:37:04.805Z,101283.88
2022-10-23T11:39:34.650Z,101286.19
2022-10-23T11:42:15.954Z,101281.81
2022-10-23T11:44:45.299Z,101274.34
2022-10-23T11:47:39.265Z,101264.63
2022-10-23T11:50:28.368Z,101271.97
2022-10-23T11:53:14.546Z,101267.88
2022-10-23T11:55:59.803Z,101261.72
2022-10-23T11:58:32.512Z,101252.22
2022-10-23T12:01:04.808Z,101250.19
2022-10-23T12:03:42.712Z,101251.25
2022-10-23T12:06:24.396Z,101256.50
2022-10-23T12:08:56.083Z,101247.38
2022-10-23T12:11:27.819Z,101249.13
2022-10-23T12:13:56.206Z,101246.59
2022-10-23T12:16:34.846Z,101241.66
2022-10-23T12:19:20.600Z,101242.88
2022-10-23T12:21:52.769Z,101248.84
2022-10-23T12:24:39.643Z,101232.34
2022-10-23T12:27:18.078Z,101224.25
2022-10-23T12:30:03.676Z,101219.50
2022-10-23T12:33:14.568Z,101213.00
2022-10-23T12:36:22.997Z,101213.31
2022-10-23T12:38:52.542Z,101216.47
2022-10-23T12:41:26.084Z,101211.78
2022-10-23T12:43:58.092Z,101214.34
2022-10-23T12:46:35.204Z,101211.03
2022-10-23T12:49:15.177Z,101209.59
2022-10-23T12:51:43.169Z,101208.13
2022-10-23T12:54:17.810Z,101204.25
2022-10-23T12:56:46.160Z,101196.31
2022-10-23T12:59:17.827Z,101189.34
2022-10-23T13:01:50.419Z,101183.84
2022-10-23T13:04:28.648Z,101183.94
2022-10-23T13:06:58.148Z,101176.84
2022-10-23T13:09:31.331Z,101179.75
2022-10-23T13:12:22.348Z,101161.59
2022-10-23T13:14:59.364Z,101155.41
2022-10-23T13:17:36.383Z,101157.09
2022-10-23T13:20:24.196Z,101152.56
2022-10-23T13:23:00.594Z,101156.91
2022-10-23T13:25:32.355Z,101150.44
2022-10-23T13:28:14.900Z,101153.34
2022-10-23T13:30:46.190Z,101148.38
2022-10-23T13:33:24.060Z,101151.66
2022-10-23T13:35:58.996Z,101149.34
2022-10-23T13:38:31.222Z,101150.00
2022-10-23T13:41:02.061Z,101146.03
2022-10-23T13:43:31.697Z,101147.31
2022-10-23T13:46:00.256Z,101137.69
2022-10-23T13:48:28.924Z,101144.09
2022-10-23T13:51:02.880Z,101138.81
2022-10-23T13:57:19.281Z,101138.69
2022-10-23T13:59:47.094Z,101140.94
2022-10-23T14:02:20.726Z,101138.28
2022-10-23T14:04:48.932Z,101136.66
2022-10-23T14:07:17.140Z,101132.97
2022-10-23T14:09:45.097Z,101130.22
2022-10-23T14:12:13.580Z,101129.19
2022-10-23T14:14:42.828Z,101117.88
2022-10-23T14:17:10.677Z,101125.72
2022-10-23T14:19:38.513Z,101115.19
2022-10-23T14:22:06.452Z,101125.34
2022-10-23T14:24:34.318Z,101112.94
2022-10-23T14:27:02.158Z,101119.41
2022-10-23T14:29:30.435Z,101114.19
2022-10-23T14:31:59.575Z,101118.03
2022-10-23T14:34:27.375Z,101115.69
2022-10-23T14:37:08.077Z,101111.09
2022-10-23T14:39:37.194Z,101109.28
2022-10-23T14:42:05.404Z,101106.88
2022-10-23T14:44:33.233Z,101104.19
2022-10-23T14:47:03.106Z,101104.66
2022-10-23T14:49:31.466Z,101096.34
2022-10-23T14:51:59.361Z,101095.03
2022-10-23T14:54:29.270Z,101105.50
2022-10-23T14:56:57.112Z,101095.97
2022-10-23T14:59:24.906Z,101088.38
2022-10-23T15:04:26.780Z,101091.69
2022-10-23T15:06:55.025Z,101091.94
2022-10-23T15:09:22.839Z,101098.28
2022-10-23T15:11:50.849Z,101087.03
2022-10-23T15:14:18.739Z,101084.97
2022-10-23T15:16:48.180Z,101080.47
2022-10-23T15:19:18.501Z,101076.72
2022-10-23T15:21:49.108Z,101070.59
2022-10-23T15:24:16.994Z,101066.75
2022-10-23T15:26:44.832Z,101062.16
2022-10-23T15:29:14.543Z,101059.28
2022-10-23T15:31:45.772Z,101057.91
2022-10-23T15:34:15.846Z,101052.84
2022-10-23T15:36:44.843Z,101051.97
2022-10-23T15:39:16.298Z,101045.19
2022-10-23T15:41:44.462Z,101045.22
2022-10-23T15:44:15.488Z,101052.81
2022-10-23T15:46:43.290Z,101049.97
2022-10-23T15:49:11.430Z,101041.28
2022-10-23T15:51:40.634Z,101041.44
2022-10-23T15:54:09.882Z,101040.44
2022-10-23T15:56:39.178Z,101033.47
2022-10-23T15:59:07.049Z,101042.81
2022-10-23T16:01:34.972Z,101040.25
2022-10-23T16:04:03.190Z,101039.94
2022-10-23T16:06:31.100Z,101037.06
2022-10-23T16:08:59.088Z,101026.03
2022-10-23T16:11:29.124Z,101031.28
2022-10-23T16:14:00.017Z,101022.44
2022-10-23T16:16:29.218Z,101019.91
2022-10-23T16:18:59.166Z,101020.78
2022-10-23T16:21:29.283Z,101030.25
2022-10-23T16:23:59.529Z,101022.13
2022-10-23T16:26:28.444Z,101026.53
2022-10-23T16:28:59.150Z,101024.34
2022-10-23T16:31:27.527Z,101018.03
2022-10-23T16:33:55.747Z,101014.34
2022-10-23T16:36:23.553Z,101000.78
2022-10-23T16:39:20.153Z,101006.72
2022-10-23T16:42:07.059Z,100996.34
2022-10-23T16:44:53.294Z,100997.00
2022-10-23T16:47:21.279Z,100993.97
2022-10-23T16:49:49.242Z,101001.44
2022-10-23T16:52:17.062Z,100996.88
2022-10-23T16:54:45.221Z,100996.16
2022-10-23T16:57:13.051Z,100988.00
2022-10-23T16:59:40.873Z,100996.03
2022-10-23T17:02:10.645Z,100984.97
2022-10-23T17:04:39.648Z,100980.59
2022-10-23T17:07:08.073Z,100980.09
2022-10-23T17:09:36.000Z,100976.84
2022-10-23T17:12:04.269Z,100972.94
2022-10-23T17:14:32.430Z,100965.94
2022-10-23T17:17:02.289Z,100957.38
2022-10-23T17:19:44.544Z,100957.03
2022-10-23T17:22:14.007Z,100941.44
2022-10-23T17:24:45.101Z,100935.34
2022-10-23T17:27:15.590Z,100935.53
2022-10-23T17:29:44.149Z,100938.03
2022-10-23T17:32:12.114Z,100948.31
2022-10-23T17:34:41.349Z,100939.09
2022-10-23T17:37:10.168Z,100950.25
2022-10-23T17:39:38.188Z,100946.00
2022-10-23T17:42:06.045Z,100942.72
2022-10-23T17:44:33.934Z,100946.28
2022-10-23T17:47:01.998Z,100929.63
2022-10-23T17:49:29.867Z,100930.50
2022-10-23T17:51:59.312Z,100921.59
2022-10-23T17:54:28.396Z,100930.88
2022-10-23T17:56:56.501Z,100928.56
2022-10-23T17:59:24.555Z,100928.03
2022-10-23T18:01:52.610Z,100926.97
2022-10-23T18:04:22.471Z,100917.97
2022-10-23T18:06:52.459Z,100931.06
2022-10-23T18:09:23.465Z,100916.53
2022-10-23T18:11:52.726Z,100901.72
2022-10-23T18:14:28.515Z,100912.72
2022-10-23T18:16:57.711Z,100906.81
2022-10-23T18:19:25.589Z,100906.50
2022-10-23T18:21:53.849Z,100894.63
2022-10-23T18:24:23.815Z,100895.31
2022-10-23T18:26:51.915Z,100896.84
2022-10-23T18:29:20.774Z,100892.44
2022-10-23T18:31:49.285Z,100882.06
2022-10-23T18:34:19.252Z,100893.06
2022-10-23T18:36:48.104Z,100881.75
2022-10-23T18:39:18.408Z,100883.41
2022-10-23T18:41:47.657Z,100892.69
2022-10-23T18:44:17.782Z,100892.84
2022-10-23T18:46:47.779Z,100901.66
2022-10-23T18:49:17.104Z,100894.38
2022-10-23T18:51:44.999Z,100886.50
2022-10-23T18:54:15.958Z,100875.44
2022-10-23T18:56:44.408Z,100885.25
2022-10-23T18:59:16.245Z,100886.56
2022-10-23T19:01:45.579Z,100886.06
2022-10-23T19:04:16.159Z,100882.81
2022-10-23T19:06:46.136Z,100872.81
2022-10-23T19:09:15.224Z,100865.94
2022-10-23T19:11:43.962Z,100865.47
2022-10-23T19:14:13.537Z,100870.13
2022-10-23T19:16:44.665Z,100867.47
2022-10-23T19:19:16.500Z,100865.97
2022-10-23T19:21:45.574Z,100867.22
2022-10-23T19:24:17.068Z,100872.19
2022-10-23T19:26:45.569Z,100870.25
2022-10-23T19:29:18.163Z,100865.88
2022-10-23T19:31:49.107Z,100852.41
2022-10-23T19:34:19.982Z,100845.59
2022-10-23T19:36:48.565Z,100849.78
2022-10-23T19:39:16.756Z,100839.75
2022-10-23T19:41:44.646Z,100844.81
2022-10-23T19:44:14.062Z,100835.38
2022-10-23T19:46:42.060Z,100825.06
2022-10-23T19:49:10.592Z,100830.47
2022-10-23T19:51:39.327Z,100836.19
2022-10-23T19:54:07.896Z,100834.81
2022-10-23T19:56:37.070Z,100839.22
2022-10-23T19:59:05.616Z,100841.56
2022-10-23T20:01:35.395Z,100839.81
2022-10-23T20:04:03.300Z,100837.47
2022-10-23T20:06:34.516Z,100834.75
2022-10-23T20:09:05.323Z,100842.66
2022-10-23T20:11:33.828Z,100843.97
2022-10-23T20:14:02.010Z,100839.94
2022-10-23T20:16:32.019Z,100834.66
2022-10-23T20:19:03.319Z,100848.09
2022-10-23T20:21:31.766Z,100844.38
2022-10-23T20:24:00.226Z,100837.75
2022-10-23T20:26:28.317Z,100840.09
2022-10-23T20:28:57.386Z,100837.63
2022-10-23T20:31:27.388Z,100830.19
2022-10-23T20:33:55.746Z,100835.19
2022-10-23T20:36:28.137Z,100827.66
2022-10-23T20:38:56.950Z,100830.22
2022-10-23T20:41:27.124Z,100823.19
2022-10-23T20:43:56.559Z,100818.13
2022-10-23T20:46:24.747Z,100826.84
2022-10-23T20:48:53.024Z,100835.38
2022-10-23T20:51:23.091Z,100830.53
2022-10-23T20:53:53.228Z,100819.44
2022-10-23T20:56:24.261Z,100820.22
2022-10-23T20:58:52.079Z,100814.69
2022-10-23T21:01:20.250Z,100812.19
2022-10-23T21:03:51.198Z,100814.31
2022-10-23T21:06:20.149Z,100812.94
2022-10-23T21:08:48.207Z,100814.75
2022-10-23T21:11:18.644Z,100806.72
2022-10-23T21:13:46.454Z,100804.34
2022-10-23T21:16:16.022Z,100798.22
2022-10-23T21:18:46.687Z,100793.44
2022-10-23T21:21:17.025Z,100794.63
2022-10-23T21:23:45.025Z,100802.53
2022-10-23T21:26:13.544Z,100798.78
2022-10-23T21:28:55.650Z,100802.88
2022-10-23T21:31:33.531Z,100822.56
2022-10-23T21:34:01.548Z,100824.44
2022-10-23T21:36:31.038Z,100834.78
2022-10-23T21:39:01.419Z,100835.66
2022-10-23T21:41:31.111Z,100849.22
2022-10-23T21:44:02.614Z,100847.88
2022-10-23T21:46:31.908Z,100851.69
2022-10-23T21:49:00.432Z,100853.63
2022-10-23T21:51:31.334Z,100849.28
2022-10-23T21:53:59.626Z,100847.72
2022-10-23T21:56:31.276Z,100838.16
2022-10-23T21:59:02.448Z,100840.66
2022-10-23T22:01:30.995Z,100840.13
2022-10-23T22:03:59.138Z,100830.91
2022-10-23T22:06:29.320Z,100838.88
2022-10-23T22:08:59.044Z,100829.31
2022-10-23T22:11:28.076Z,100825.66
2022-10-23T22:13:56.397Z,100832.41
2022-10-23T22:16:25.879Z,100838.41
2022-10-23T22:18:54.384Z,100845.34
2022-10-23T22:21:25.672Z,100843.88
2022-10-23T22:23:56.266Z,100856.38
2022-10-23T22:26:27.041Z,100854.00
2022-10-23T22:28:56.892Z,100871.28
2022-10-23T22:31:31.561Z,100867.00
2022-10-23T22:34:08.578Z,100863.72
2022-10-23T22:36:47.015Z,100861.50
2022-10-23T22:39:14.893Z,100865.91
2022-10-23T22:41:43.633Z,100867.50
2022-10-23T22:44:12.832Z,100863.66
2022-10-23T22:46:43.018Z,100869.84
2022-10-23T22:49:11.426Z,100877.91
2022-10-23T22:51:39.920Z,100883.94
2022-10-23T22:54:08.014Z,100867.97
2022-10-23T22:56:36.130Z,100884.16
2022-10-23T22:59:04.936Z,100874.59
2022-10-23T23:01:36.175Z,100871.44
2022-10-23T23:04:19.760Z,100868.72
2022-10-23T23:06:53.744Z,100872.66
2022-10-23T23:09:21.632Z,100866.91
2022-10-23T23:11:52.928Z,100856.63
2022-10-23T23:14:23.703Z,100852.63
2022-10-23T23:16:53.085Z,100835.50
2022-10-23T23:19:23.551Z,100845.78
2022-10-23T23:21:51.415Z,100839.28
2022-10-23T23:24:19.260Z,100836.28
2022-10-23T23:26:47.249Z,100839.66
2022-10-23T23:29:15.095Z,100835.03
2022-10-23T23:31:42.998Z,100816.38
2022-10-23T23:34:11.245Z,100815.13
2022-10-23T23:36:40.603Z,100810.06
2022-10-23T23:39:08.670Z,100809.19
2022-10-23T23:41:36.549Z,100806.41
2022-10-23T23:44:04.593Z,100799.66
2022-10-23T23:46:32.464Z,100805.59
2022-10-23T23:49:00.270Z,100805.88
2022-10-23T23:51:28.122Z,100790.28
2022-10-23T23:53:57.329Z,100788.34
2022-10-23T23:56:25.225Z,100783.22
2022-10-23T23:58:53.495Z,100791.44
